sensor_id;sensor_type;location;lat;lon;timestamp;P1;durP1;ratioP1;P2;durP2;ratioP2
48951;SDS011;34758;42.148;24.744;2023-06-04T00:00:17;4.50;;;2.22;;
48951;SDS011;34758;42.148;24.744;2023-06-04T00:02:46;4.35;;;2.15;;
48951;SDS011;34758;42.148;24.744;2023-06-04T00:05:14;3.97;;;2.00;;
48951;SDS011;34758;42.148;24.744;2023-06-04T00:07:42;4.32;;;2.42;;
48951;SDS011;34758;42.148;24.744;2023-06-04T00:10:10;3.05;;;2.67;;
48951;SDS011;34758;42.148;24.744;2023-06-04T00:12:37;5.82;;;2.95;;
48951;SDS011;34758;42.148;24.744;2023-06-04T00:15:06;6.32;;;2.40;;
48951;SDS011;34758;42.148;24.744;2023-06-04T00:17:34;4.03;;;2.38;;
48951;SDS011;34758;42.148;24.744;2023-06-04T00:20:01;2.92;;;2.08;;
48951;SDS011;34758;42.148;24.744;2023-06-04T00:22:29;4.55;;;2.38;;
48951;SDS011;34758;42.148;24.744;2023-06-04T00:24:56;4.70;;;2.25;;
48951;SDS011;34758;42.148;24.744;2023-06-04T00:27:23;7.40;;;2.88;;
48951;SDS011;34758;42.148;24.744;2023-06-04T00:29:50;5.65;;;2.75;;
48951;SDS011;34758;42.148;24.744;2023-06-04T00:32:20;3.28;;;2.40;;
48951;SDS011;34758;42.148;24.744;2023-06-04T00:34:50;5.72;;;2.63;;
48951;SDS011;34758;42.148;24.744;2023-06-04T00:37:17;4.07;;;2.95;;
48951;SDS011;34758;42.148;24.744;2023-06-04T00:39:45;5.50;;;2.55;;
48951;SDS011;34758;42.148;24.744;2023-06-04T00:42:12;3.53;;;2.60;;
48951;SDS011;34758;42.148;24.744;2023-06-04T00:44:40;6.15;;;3.08;;
48951;SDS011;34758;42.148;24.744;2023-06-04T00:47:09;7.03;;;2.30;;
48951;SDS011;34758;42.148;24.744;2023-06-04T00:49:38;4.93;;;2.72;;
48951;SDS011;34758;42.148;24.744;2023-06-04T00:52:06;4.35;;;2.25;;
48951;SDS011;34758;42.148;24.744;2023-06-04T00:54:35;7.95;;;2.65;;
48951;SDS011;34758;42.148;24.744;2023-06-04T00:57:02;5.15;;;2.22;;
48951;SDS011;34758;42.148;24.744;2023-06-04T00:59:30;5.63;;;2.90;;
48951;SDS011;34758;42.148;24.744;2023-06-04T01:02:00;3.95;;;2.50;;
48951;SDS011;34758;42.148;24.744;2023-06-04T01:04:29;4.82;;;2.70;;
48951;SDS011;34758;42.148;24.744;2023-06-04T01:07:02;7.73;;;3.00;;
48951;SDS011;34758;42.148;24.744;2023-06-04T01:09:31;5.43;;;2.80;;
48951;SDS011;34758;42.148;24.744;2023-06-04T01:11:58;6.68;;;3.10;;
48951;SDS011;34758;42.148;24.744;2023-06-04T01:14:27;3.42;;;2.70;;
48951;SDS011;34758;42.148;24.744;2023-06-04T01:16:55;7.10;;;3.00;;
48951;SDS011;34758;42.148;24.744;2023-06-04T01:22:35;5.85;;;2.80;;
48951;SDS011;34758;42.148;24.744;2023-06-04T01:25:05;5.03;;;2.67;;
48951;SDS011;34758;42.148;24.744;2023-06-04T01:27:45;5.50;;;2.55;;
48951;SDS011;34758;42.148;24.744;2023-06-04T01:30:15;5.20;;;2.22;;
48951;SDS011;34758;42.148;24.744;2023-06-04T01:32:43;6.63;;;3.03;;
48951;SDS011;34758;42.148;24.744;2023-06-04T01:35:11;3.97;;;2.63;;
48951;SDS011;34758;42.148;24.744;2023-06-04T01:37:40;4.50;;;2.53;;
48951;SDS011;34758;42.148;24.744;2023-06-04T01:40:07;6.93;;;2.78;;
48951;SDS011;34758;42.148;24.744;2023-06-04T01:42:36;4.45;;;2.60;;
48951;SDS011;34758;42.148;24.744;2023-06-04T01:45:04;5.65;;;2.45;;
48951;SDS011;34758;42.148;24.744;2023-06-04T01:47:32;6.57;;;2.65;;
48951;SDS011;34758;42.148;24.744;2023-06-04T01:50:00;4.90;;;2.80;;
48951;SDS011;34758;42.148;24.744;2023-06-04T01:52:28;3.63;;;2.60;;
48951;SDS011;34758;42.148;24.744;2023-06-04T01:54:57;4.80;;;2.58;;
48951;SDS011;34758;42.148;24.744;2023-06-04T01:57:24;5.47;;;2.70;;
48951;SDS011;34758;42.148;24.744;2023-06-04T01:59:51;4.30;;;2.90;;
48951;SDS011;34758;42.148;24.744;2023-06-04T02:02:18;4.75;;;2.35;;
48951;SDS011;34758;42.148;24.744;2023-06-04T02:04:45;3.88;;;2.72;;
48951;SDS011;34758;42.148;24.744;2023-06-04T02:07:13;4.28;;;2.88;;
48951;SDS011;34758;42.148;24.744;2023-06-04T02:09:43;4.53;;;2.53;;
48951;SDS011;34758;42.148;24.744;2023-06-04T02:12:11;9.48;;;2.67;;
48951;SDS011;34758;42.148;24.744;2023-06-04T02:14:38;3.97;;;2.40;;
48951;SDS011;34758;42.148;24.744;2023-06-04T02:17:07;4.38;;;2.63;;
48951;SDS011;34758;42.148;24.744;2023-06-04T02:19:38;4.90;;;2.60;;
48951;SDS011;34758;42.148;24.744;2023-06-04T02:22:11;3.45;;;2.35;;
48951;SDS011;34758;42.148;24.744;2023-06-04T02:24:38;4.97;;;3.00;;
48951;SDS011;34758;42.148;24.744;2023-06-04T02:27:07;3.88;;;2.58;;
48951;SDS011;34758;42.148;24.744;2023-06-04T02:29:39;4.70;;;2.45;;
48951;SDS011;34758;42.148;24.744;2023-06-04T02:32:06;3.80;;;2.50;;
48951;SDS011;34758;42.148;24.744;2023-06-04T02:34:34;5.38;;;2.85;;
48951;SDS011;34758;42.148;24.744;2023-06-04T02:37:01;3.17;;;2.20;;
48951;SDS011;34758;42.148;24.744;2023-06-04T02:39:29;3.90;;;2.63;;
48951;SDS011;34758;42.148;24.744;2023-06-04T02:41:56;6.50;;;2.88;;
48951;SDS011;34758;42.148;24.744;2023-06-04T02:44:23;3.45;;;2.20;;
48951;SDS011;34758;42.148;24.744;2023-06-04T02:46:51;5.25;;;2.90;;
48951;SDS011;34758;42.148;24.744;2023-06-04T02:49:19;8.85;;;2.65;;
48951;SDS011;34758;42.148;24.744;2023-06-04T02:51:46;3.67;;;2.83;;
48951;SDS011;34758;42.148;24.744;2023-06-04T02:54:13;5.28;;;2.60;;
48951;SDS011;34758;42.148;24.744;2023-06-04T02:56:40;5.07;;;2.83;;
48951;SDS011;34758;42.148;24.744;2023-06-04T02:59:09;4.78;;;2.42;;
48951;SDS011;34758;42.148;24.744;2023-06-04T03:01:36;3.75;;;2.53;;
48951;SDS011;34758;42.148;24.744;2023-06-04T03:04:05;6.70;;;2.63;;
48951;SDS011;34758;42.148;24.744;2023-06-04T03:09:03;2.60;;;2.03;;
48951;SDS011;34758;42.148;24.744;2023-06-04T03:11:32;2.80;;;2.30;;
48951;SDS011;34758;42.148;24.744;2023-06-04T03:13:59;5.25;;;2.28;;
48951;SDS011;34758;42.148;24.744;2023-06-04T03:16:26;6.13;;;2.65;;
48951;SDS011;34758;42.148;24.744;2023-06-04T03:18:53;3.70;;;2.08;;
48951;SDS011;34758;42.148;24.744;2023-06-04T03:21:24;3.47;;;2.28;;
48951;SDS011;34758;42.148;24.744;2023-06-04T03:23:54;5.30;;;2.40;;
48951;SDS011;34758;42.148;24.744;2023-06-04T03:26:21;4.03;;;2.30;;
48951;SDS011;34758;42.148;24.744;2023-06-04T03:28:47;3.47;;;2.13;;
48951;SDS011;34758;42.148;24.744;2023-06-04T03:31:15;7.38;;;2.30;;
48951;SDS011;34758;42.148;24.744;2023-06-04T03:33:42;3.97;;;2.15;;
48951;SDS011;34758;42.148;24.744;2023-06-04T03:36:09;5.10;;;2.35;;
48951;SDS011;34758;42.148;24.744;2023-06-04T03:38:37;3.75;;;2.40;;
48951;SDS011;34758;42.148;24.744;2023-06-04T03:41:05;5.80;;;2.42;;
48951;SDS011;34758;42.148;24.744;2023-06-04T03:43:33;6.13;;;2.63;;
48951;SDS011;34758;42.148;24.744;2023-06-04T03:46:00;5.63;;;2.40;;
48951;SDS011;34758;42.148;24.744;2023-06-04T03:48:27;5.97;;;3.15;;
48951;SDS011;34758;42.148;24.744;2023-06-04T03:50:54;6.40;;;2.85;;
48951;SDS011;34758;42.148;24.744;2023-06-04T03:53:21;4.43;;;2.95;;
48951;SDS011;34758;42.148;24.744;2023-06-04T03:55:50;5.68;;;2.85;;
48951;SDS011;34758;42.148;24.744;2023-06-04T03:58:17;3.30;;;2.70;;
48951;SDS011;34758;42.148;24.744;2023-06-04T04:00:46;7.32;;;2.80;;
48951;SDS011;34758;42.148;24.744;2023-06-04T04:03:14;4.93;;;2.95;;
48951;SDS011;34758;42.148;24.744;2023-06-04T04:05:43;4.07;;;2.67;;
48951;SDS011;34758;42.148;24.744;2023-06-04T04:08:10;4.40;;;2.95;;
48951;SDS011;34758;42.148;24.744;2023-06-04T04:10:37;4.60;;;3.13;;
48951;SDS011;34758;42.148;24.744;2023-06-04T04:13:06;6.57;;;3.10;;
48951;SDS011;34758;42.148;24.744;2023-06-04T04:15:33;5.65;;;2.80;;
48951;SDS011;34758;42.148;24.744;2023-06-04T04:18:01;5.80;;;3.13;;
48951;SDS011;34758;42.148;24.744;2023-06-04T04:20:28;4.72;;;2.70;;
48951;SDS011;34758;42.148;24.744;2023-06-04T04:22:56;5.28;;;2.65;;
48951;SDS011;34758;42.148;24.744;2023-06-04T04:25:23;7.30;;;2.60;;
48951;SDS011;34758;42.148;24.744;2023-06-04T04:27:49;4.38;;;2.60;;
48951;SDS011;34758;42.148;24.744;2023-06-04T04:30:18;5.80;;;2.75;;
48951;SDS011;34758;42.148;24.744;2023-06-04T04:32:47;7.10;;;3.10;;
48951;SDS011;34758;42.148;24.744;2023-06-04T04:35:15;5.15;;;2.50;;
48951;SDS011;34758;42.148;24.744;2023-06-04T04:37:43;5.78;;;2.60;;
48951;SDS011;34758;42.148;24.744;2023-06-04T04:40:10;5.88;;;2.70;;
48951;SDS011;34758;42.148;24.744;2023-06-04T04:42:39;9.77;;;2.90;;
48951;SDS011;34758;42.148;24.744;2023-06-04T04:45:07;4.05;;;2.45;;
48951;SDS011;34758;42.148;24.744;2023-06-04T04:47:36;5.18;;;2.80;;
48951;SDS011;34758;42.148;24.744;2023-06-04T04:50:04;7.13;;;3.05;;
48951;SDS011;34758;42.148;24.744;2023-06-04T04:52:33;7.32;;;3.08;;
48951;SDS011;34758;42.148;24.744;2023-06-04T04:55:01;3.75;;;2.60;;
48951;SDS011;34758;42.148;24.744;2023-06-04T04:57:28;5.35;;;2.75;;
48951;SDS011;34758;42.148;24.744;2023-06-04T04:59:55;4.88;;;3.00;;
48951;SDS011;34758;42.148;24.744;2023-06-04T05:02:23;3.08;;;2.58;;
48951;SDS011;34758;42.148;24.744;2023-06-04T05:04:52;5.03;;;3.35;;
48951;SDS011;34758;42.148;24.744;2023-06-04T05:07:19;4.82;;;2.95;;
48951;SDS011;34758;42.148;24.744;2023-06-04T05:09:49;4.70;;;3.45;;
48951;SDS011;34758;42.148;24.744;2023-06-04T05:12:16;6.78;;;3.33;;
48951;SDS011;34758;42.148;24.744;2023-06-04T05:14:45;5.75;;;2.92;;
48951;SDS011;34758;42.148;24.744;2023-06-04T05:17:12;5.63;;;2.80;;
48951;SDS011;34758;42.148;24.744;2023-06-04T05:19:41;4.45;;;2.80;;
48951;SDS011;34758;42.148;24.744;2023-06-04T05:22:10;5.22;;;2.83;;
48951;SDS011;34758;42.148;24.744;2023-06-04T05:24:38;5.43;;;3.40;;
48951;SDS011;34758;42.148;24.744;2023-06-04T05:27:05;6.13;;;3.22;;
48951;SDS011;34758;42.148;24.744;2023-06-04T05:29:34;6.70;;;3.05;;
48951;SDS011;34758;42.148;24.744;2023-06-04T05:32:02;5.22;;;3.55;;
48951;SDS011;34758;42.148;24.744;2023-06-04T05:34:31;5.43;;;3.55;;
48951;SDS011;34758;42.148;24.744;2023-06-04T05:36:58;6.22;;;3.55;;
48951;SDS011;34758;42.148;24.744;2023-06-04T05:39:26;6.72;;;3.20;;
48951;SDS011;34758;42.148;24.744;2023-06-04T05:41:53;6.80;;;3.33;;
48951;SDS011;34758;42.148;24.744;2023-06-04T05:44:21;6.38;;;3.58;;
48951;SDS011;34758;42.148;24.744;2023-06-04T05:46:47;5.85;;;2.92;;
48951;SDS011;34758;42.148;24.744;2023-06-04T05:49:15;5.45;;;3.42;;
48951;SDS011;34758;42.148;24.744;2023-06-04T05:51:43;4.95;;;3.05;;
48951;SDS011;34758;42.148;24.744;2023-06-04T05:54:11;4.05;;;3.58;;
48951;SDS011;34758;42.148;24.744;2023-06-04T05:56:40;10.43;;;3.85;;
48951;SDS011;34758;42.148;24.744;2023-06-04T05:59:07;10.70;;;4.25;;
48951;SDS011;34758;42.148;24.744;2023-06-04T06:01:34;5.47;;;4.22;;
48951;SDS011;34758;42.148;24.744;2023-06-04T06:04:01;5.97;;;3.63;;
48951;SDS011;34758;42.148;24.744;2023-06-04T06:06:28;5.03;;;4.07;;
48951;SDS011;34758;42.148;24.744;2023-06-04T06:08:56;7.13;;;4.30;;
48951;SDS011;34758;42.148;24.744;2023-06-04T06:11:23;8.38;;;4.05;;
48951;SDS011;34758;42.148;24.744;2023-06-04T06:13:53;5.75;;;4.00;;
48951;SDS011;34758;42.148;24.744;2023-06-04T06:16:20;6.30;;;4.03;;
48951;SDS011;34758;42.148;24.744;2023-06-04T06:18:47;9.20;;;4.10;;
48951;SDS011;34758;42.148;24.744;2023-06-04T06:21:14;7.57;;;4.00;;
48951;SDS011;34758;42.148;24.744;2023-06-04T06:23:41;7.07;;;4.38;;
48951;SDS011;34758;42.148;24.744;2023-06-04T06:26:09;7.63;;;3.88;;
48951;SDS011;34758;42.148;24.744;2023-06-04T06:28:38;10.95;;;4.35;;
48951;SDS011;34758;42.148;24.744;2023-06-04T06:31:07;7.07;;;3.83;;
48951;SDS011;34758;42.148;24.744;2023-06-04T06:33:35;7.32;;;4.95;;
48951;SDS011;34758;42.148;24.744;2023-06-04T06:38:33;6.88;;;4.45;;
48951;SDS011;34758;42.148;24.744;2023-06-04T06:41:00;6.28;;;4.15;;
48951;SDS011;34758;42.148;24.744;2023-06-04T06:43:27;6.25;;;4.53;;
48951;SDS011;34758;42.148;24.744;2023-06-04T06:45:54;4.43;;;3.70;;
48951;SDS011;34758;42.148;24.744;2023-06-04T06:48:23;6.45;;;3.97;;
48951;SDS011;34758;42.148;24.744;2023-06-04T06:50:50;9.32;;;4.35;;
48951;SDS011;34758;42.148;24.744;2023-06-04T06:53:17;7.75;;;4.38;;
48951;SDS011;34758;42.148;24.744;2023-06-04T06:55:44;9.48;;;5.20;;
48951;SDS011;34758;42.148;24.744;2023-06-04T06:58:11;8.20;;;4.45;;
48951;SDS011;34758;42.148;24.744;2023-06-04T07:00:38;5.03;;;4.35;;
48951;SDS011;34758;42.148;24.744;2023-06-04T07:03:04;8.65;;;4.93;;
48951;SDS011;34758;42.148;24.744;2023-06-04T07:05:34;7.88;;;5.22;;
48951;SDS011;34758;42.148;24.744;2023-06-04T07:08:02;8.48;;;5.75;;
48951;SDS011;34758;42.148;24.744;2023-06-04T07:10:29;7.65;;;5.32;;
48951;SDS011;34758;42.148;24.744;2023-06-04T07:12:56;6.75;;;5.30;;
48951;SDS011;34758;42.148;24.744;2023-06-04T07:15:23;11.65;;;5.85;;
48951;SDS011;34758;42.148;24.744;2023-06-04T07:17:50;8.18;;;5.07;;
48951;SDS011;34758;42.148;24.744;2023-06-04T07:20:17;5.82;;;4.93;;
48951;SDS011;34758;42.148;24.744;2023-06-04T07:22:46;7.32;;;5.05;;
48951;SDS011;34758;42.148;24.744;2023-06-04T07:25:13;7.95;;;4.60;;
48951;SDS011;34758;42.148;24.744;2023-06-04T07:27:40;5.93;;;4.15;;
48951;SDS011;34758;42.148;24.744;2023-06-04T07:30:08;7.43;;;4.13;;
48951;SDS011;34758;42.148;24.744;2023-06-04T07:32:36;6.85;;;4.20;;
48951;SDS011;34758;42.148;24.744;2023-06-04T07:35:03;7.05;;;3.70;;
48951;SDS011;34758;42.148;24.744;2023-06-04T07:37:30;6.88;;;3.40;;
48951;SDS011;34758;42.148;24.744;2023-06-04T07:39:59;4.80;;;3.70;;
48951;SDS011;34758;42.148;24.744;2023-06-04T07:42:26;4.57;;;3.78;;
48951;SDS011;34758;42.148;24.744;2023-06-04T07:44:54;5.07;;;3.20;;
48951;SDS011;34758;42.148;24.744;2023-06-04T07:47:22;6.82;;;3.83;;
48951;SDS011;34758;42.148;24.744;2023-06-04T07:49:49;5.50;;;3.70;;
48951;SDS011;34758;42.148;24.744;2023-06-04T07:52:17;5.78;;;3.80;;
48951;SDS011;34758;42.148;24.744;2023-06-04T07:54:44;7.38;;;3.70;;
48951;SDS011;34758;42.148;24.744;2023-06-04T07:57:13;6.15;;;4.20;;
48951;SDS011;34758;42.148;24.744;2023-06-04T07:59:40;8.10;;;4.30;;
48951;SDS011;34758;42.148;24.744;2023-06-04T08:02:08;6.70;;;4.18;;
48951;SDS011;34758;42.148;24.744;2023-06-04T08:04:35;7.68;;;4.45;;
48951;SDS011;34758;42.148;24.744;2023-06-04T08:07:03;5.55;;;3.83;;
48951;SDS011;34758;42.148;24.744;2023-06-04T08:09:30;5.82;;;4.43;;
48951;SDS011;34758;42.148;24.744;2023-06-04T08:11:57;8.88;;;4.15;;
48951;SDS011;34758;42.148;24.744;2023-06-04T08:14:26;9.52;;;4.25;;
48951;SDS011;34758;42.148;24.744;2023-06-04T08:16:53;8.82;;;4.13;;
48951;SDS011;34758;42.148;24.744;2023-06-04T08:19:23;5.32;;;4.53;;
48951;SDS011;34758;42.148;24.744;2023-06-04T08:21:50;6.40;;;4.00;;
48951;SDS011;34758;42.148;24.744;2023-06-04T08:24:18;5.30;;;3.53;;
48951;SDS011;34758;42.148;24.744;2023-06-04T08:26:46;5.38;;;3.58;;
48951;SDS011;34758;42.148;24.744;2023-06-04T08:29:13;8.88;;;3.97;;
48951;SDS011;34758;42.148;24.744;2023-06-04T08:31:42;6.10;;;3.85;;
48951;SDS011;34758;42.148;24.744;2023-06-04T08:34:09;4.97;;;3.90;;
48951;SDS011;34758;42.148;24.744;2023-06-04T08:36:36;6.50;;;3.70;;
48951;SDS011;34758;42.148;24.744;2023-06-04T08:39:04;9.07;;;3.67;;
48951;SDS011;34758;42.148;24.744;2023-06-04T08:41:34;6.10;;;4.05;;
48951;SDS011;34758;42.148;24.744;2023-06-04T08:44:04;6.07;;;4.00;;
48951;SDS011;34758;42.148;24.744;2023-06-04T08:46:32;6.18;;;3.60;;
48951;SDS011;34758;42.148;24.744;2023-06-04T08:49:00;3.78;;;3.05;;
48951;SDS011;34758;42.148;24.744;2023-06-04T08:51:32;6.17;;;3.07;;
48951;SDS011;34758;42.148;24.744;2023-06-04T08:54:00;6.77;;;3.37;;
48951;SDS011;34758;42.148;24.744;2023-06-04T08:56:27;6.05;;;3.15;;
48951;SDS011;34758;42.148;24.744;2023-06-04T08:59:00;5.70;;;3.45;;
48951;SDS011;34758;42.148;24.744;2023-06-04T09:01:28;5.25;;;4.30;;
48951;SDS011;34758;42.148;24.744;2023-06-04T09:03:56;5.95;;;4.15;;
48951;SDS011;34758;42.148;24.744;2023-06-04T09:06:28;5.13;;;3.85;;
48951;SDS011;34758;42.148;24.744;2023-06-04T09:08:56;7.57;;;4.40;;
48951;SDS011;34758;42.148;24.744;2023-06-04T09:11:27;4.80;;;4.38;;
48951;SDS011;34758;42.148;24.744;2023-06-04T09:13:54;9.20;;;5.13;;
48951;SDS011;34758;42.148;24.744;2023-06-04T09:16:25;7.82;;;4.82;;
48951;SDS011;34758;42.148;24.744;2023-06-04T09:18:52;7.00;;;3.97;;
48951;SDS011;34758;42.148;24.744;2023-06-04T09:21:20;6.15;;;4.00;;
48951;SDS011;34758;42.148;24.744;2023-06-04T09:23:48;8.77;;;4.70;;
48951;SDS011;34758;42.148;24.744;2023-06-04T09:26:16;10.23;;;5.72;;
48951;SDS011;34758;42.148;24.744;2023-06-04T09:28:43;14.82;;;6.30;;
48951;SDS011;34758;42.148;24.744;2023-06-04T09:31:13;16.75;;;7.10;;
48951;SDS011;34758;42.148;24.744;2023-06-04T09:33:42;29.80;;;12.77;;
48951;SDS011;34758;42.148;24.744;2023-06-04T09:36:10;18.75;;;9.35;;
48951;SDS011;34758;42.148;24.744;2023-06-04T09:38:37;7.95;;;5.40;;
48951;SDS011;34758;42.148;24.744;2023-06-04T09:41:12;6.72;;;4.90;;
48951;SDS011;34758;42.148;24.744;2023-06-04T09:43:39;7.50;;;5.10;;
48951;SDS011;34758;42.148;24.744;2023-06-04T09:46:10;8.18;;;4.43;;
48951;SDS011;34758;42.148;24.744;2023-06-04T09:48:39;10.90;;;5.35;;
48951;SDS011;34758;42.148;24.744;2023-06-04T09:51:07;4.97;;;3.80;;
48951;SDS011;34758;42.148;24.744;2023-06-04T09:53:34;7.53;;;4.72;;
48951;SDS011;34758;42.148;24.744;2023-06-04T09:56:02;4.95;;;3.72;;
48951;SDS011;34758;42.148;24.744;2023-06-04T09:58:32;5.43;;;3.75;;
48951;SDS011;34758;42.148;24.744;2023-06-04T10:01:00;10.73;;;3.75;;
48951;SDS011;34758;42.148;24.744;2023-06-04T10:03:30;8.25;;;3.95;;
48951;SDS011;34758;42.148;24.744;2023-06-04T10:05:58;4.53;;;3.53;;
48951;SDS011;34758;42.148;24.744;2023-06-04T10:08:26;6.00;;;3.80;;
48951;SDS011;34758;42.148;24.744;2023-06-04T10:10:55;4.22;;;2.97;;
48951;SDS011;34758;42.148;24.744;2023-06-04T10:15:55;3.72;;;2.72;;
48951;SDS011;34758;42.148;24.744;2023-06-04T10:18:24;7.53;;;4.20;;
48951;SDS011;34758;42.148;24.744;2023-06-04T10:20:52;7.60;;;5.22;;
48951;SDS011;34758;42.148;24.744;2023-06-04T10:23:20;8.45;;;4.88;;
48951;SDS011;34758;42.148;24.744;2023-06-04T10:25:51;7.43;;;3.83;;
48951;SDS011;34758;42.148;24.744;2023-06-04T10:28:19;4.00;;;2.67;;
48951;SDS011;34758;42.148;24.744;2023-06-04T10:30:47;4.10;;;3.10;;
48951;SDS011;34758;42.148;24.744;2023-06-04T10:33:17;5.70;;;2.90;;
48951;SDS011;34758;42.148;24.744;2023-06-04T10:35:49;5.78;;;2.53;;
48951;SDS011;34758;42.148;24.744;2023-06-04T10:38:17;3.03;;;2.63;;
48951;SDS011;34758;42.148;24.744;2023-06-04T10:40:46;5.53;;;2.35;;
48951;SDS011;34758;42.148;24.744;2023-06-04T10:43:14;4.00;;;2.53;;
48951;SDS011;34758;42.148;24.744;2023-06-04T10:45:42;5.80;;;2.60;;
48951;SDS011;34758;42.148;24.744;2023-06-04T10:48:10;4.43;;;3.00;;
48951;SDS011;34758;42.148;24.744;2023-06-04T10:50:48;5.10;;;3.53;;
48951;SDS011;34758;42.148;24.744;2023-06-04T10:53:16;8.65;;;3.42;;
48951;SDS011;34758;42.148;24.744;2023-06-04T10:55:44;5.07;;;2.83;;
48951;SDS011;34758;42.148;24.744;2023-06-04T10:58:12;4.40;;;2.85;;
48951;SDS011;34758;42.148;24.744;2023-06-04T11:00:40;5.93;;;4.43;;
48951;SDS011;34758;42.148;24.744;2023-06-04T11:03:09;5.68;;;4.55;;
48951;SDS011;34758;42.148;24.744;2023-06-04T11:05:36;6.10;;;4.00;;
48951;SDS011;34758;42.148;24.744;2023-06-04T11:08:08;4.00;;;3.53;;
48951;SDS011;34758;42.148;24.744;2023-06-04T11:10:37;5.82;;;4.18;;
48951;SDS011;34758;42.148;24.744;2023-06-04T11:13:04;5.55;;;4.38;;
48951;SDS011;34758;42.148;24.744;2023-06-04T11:15:39;5.28;;;4.60;;
48951;SDS011;34758;42.148;24.744;2023-06-04T11:18:07;9.95;;;4.70;;
48951;SDS011;34758;42.148;24.744;2023-06-04T11:20:34;4.43;;;4.03;;
48951;SDS011;34758;42.148;24.744;2023-06-04T11:23:01;4.47;;;3.25;;
48951;SDS011;34758;42.148;24.744;2023-06-04T11:25:30;6.40;;;4.28;;
48951;SDS011;34758;42.148;24.744;2023-06-04T11:27:58;5.85;;;4.10;;
48951;SDS011;34758;42.148;24.744;2023-06-04T11:30:28;8.43;;;5.53;;
48951;SDS011;34758;42.148;24.744;2023-06-04T11:33:02;6.72;;;4.97;;
48951;SDS011;34758;42.148;24.744;2023-06-04T11:35:39;6.18;;;4.20;;
48951;SDS011;34758;42.148;24.744;2023-06-04T11:38:06;4.22;;;3.67;;
48951;SDS011;34758;42.148;24.744;2023-06-04T11:40:35;6.57;;;3.28;;
48951;SDS011;34758;42.148;24.744;2023-06-04T11:43:03;6.90;;;3.45;;
48951;SDS011;34758;42.148;24.744;2023-06-04T11:45:30;5.93;;;3.67;;
48951;SDS011;34758;42.148;24.744;2023-06-04T11:47:58;4.28;;;3.30;;
48951;SDS011;34758;42.148;24.744;2023-06-04T11:50:26;5.22;;;3.88;;
48951;SDS011;34758;42.148;24.744;2023-06-04T11:52:54;5.35;;;3.05;;
48951;SDS011;34758;42.148;24.744;2023-06-04T11:55:21;4.53;;;3.40;;
48951;SDS011;34758;42.148;24.744;2023-06-04T11:57:52;4.93;;;3.55;;
48951;SDS011;34758;42.148;24.744;2023-06-04T12:00:20;4.75;;;2.78;;
48951;SDS011;34758;42.148;24.744;2023-06-04T12:02:48;5.07;;;3.45;;
48951;SDS011;34758;42.148;24.744;2023-06-04T12:05:19;4.82;;;3.75;;
48951;SDS011;34758;42.148;24.744;2023-06-04T12:07:50;6.10;;;3.93;;
48951;SDS011;34758;42.148;24.744;2023-06-04T12:10:19;4.85;;;3.88;;
48951;SDS011;34758;42.148;24.744;2023-06-04T12:12:54;3.80;;;3.33;;
48951;SDS011;34758;42.148;24.744;2023-06-04T12:15:22;5.20;;;3.50;;
48951;SDS011;34758;42.148;24.744;2023-06-04T12:17:50;5.82;;;3.45;;
48951;SDS011;34758;42.148;24.744;2023-06-04T12:20:17;5.30;;;3.58;;
48951;SDS011;34758;42.148;24.744;2023-06-04T12:22:45;3.80;;;3.03;;
48951;SDS011;34758;42.148;24.744;2023-06-04T12:25:23;8.07;;;3.70;;
48951;SDS011;34758;42.148;24.744;2023-06-04T12:27:51;4.13;;;3.10;;
48951;SDS011;34758;42.148;24.744;2023-06-04T12:30:22;4.50;;;3.30;;
48951;SDS011;34758;42.148;24.744;2023-06-04T12:32:49;4.82;;;3.95;;
48951;SDS011;34758;42.148;24.744;2023-06-04T12:35:17;9.95;;;2.70;;
48951;SDS011;34758;42.148;24.744;2023-06-04T12:37:44;4.80;;;3.17;;
48951;SDS011;34758;42.148;24.744;2023-06-04T12:40:11;5.82;;;3.70;;
48951;SDS011;34758;42.148;24.744;2023-06-04T12:42:39;4.57;;;3.22;;
48951;SDS011;34758;42.148;24.744;2023-06-04T12:45:08;5.20;;;3.70;;
48951;SDS011;34758;42.148;24.744;2023-06-04T12:47:37;6.47;;;3.30;;
48951;SDS011;34758;42.148;24.744;2023-06-04T12:50:04;5.75;;;4.07;;
48951;SDS011;34758;42.148;24.744;2023-06-04T12:52:32;4.50;;;4.10;;
48951;SDS011;34758;42.148;24.744;2023-06-04T12:54:59;5.53;;;3.72;;
48951;SDS011;34758;42.148;24.744;2023-06-04T12:57:26;4.78;;;3.75;;
48951;SDS011;34758;42.148;24.744;2023-06-04T12:59:53;4.47;;;2.80;;
48951;SDS011;34758;42.148;24.744;2023-06-04T13:02:21;7.05;;;6.35;;
48951;SDS011;34758;42.148;24.744;2023-06-04T13:04:49;5.90;;;4.80;;
48951;SDS011;34758;42.148;24.744;2023-06-04T13:07:20;5.97;;;4.28;;
48951;SDS011;34758;42.148;24.744;2023-06-04T13:09:48;7.20;;;3.80;;
48951;SDS011;34758;42.148;24.744;2023-06-04T13:12:16;8.98;;;5.05;;
48951;SDS011;34758;42.148;24.744;2023-06-04T13:14:43;5.25;;;3.75;;
48951;SDS011;34758;42.148;24.744;2023-06-04T13:17:10;6.93;;;3.72;;
48951;SDS011;34758;42.148;24.744;2023-06-04T13:19:38;9.85;;;4.45;;
48951;SDS011;34758;42.148;24.744;2023-06-04T13:22:05;5.47;;;4.40;;
48951;SDS011;34758;42.148;24.744;2023-06-04T13:24:32;4.47;;;3.50;;
48951;SDS011;34758;42.148;24.744;2023-06-04T13:26:59;5.40;;;3.65;;
48951;SDS011;34758;42.148;24.744;2023-06-04T13:29:26;8.43;;;3.17;;
48951;SDS011;34758;42.148;24.744;2023-06-04T13:31:52;3.35;;;2.83;;
48951;SDS011;34758;42.148;24.744;2023-06-04T13:34:20;3.70;;;3.08;;
48951;SDS011;34758;42.148;24.744;2023-06-04T13:36:49;4.85;;;3.45;;
48951;SDS011;34758;42.148;24.744;2023-06-04T13:39:16;3.88;;;3.40;;
48951;SDS011;34758;42.148;24.744;2023-06-04T13:41:43;6.72;;;4.22;;
48951;SDS011;34758;42.148;24.744;2023-06-04T13:44:10;5.93;;;4.15;;
48951;SDS011;34758;42.148;24.744;2023-06-04T13:46:37;7.93;;;3.67;;
48951;SDS011;34758;42.148;24.744;2023-06-04T13:49:04;7.38;;;3.45;;
48951;SDS011;34758;42.148;24.744;2023-06-04T13:51:31;5.00;;;3.20;;
48951;SDS011;34758;42.148;24.744;2023-06-04T13:54:03;4.40;;;4.00;;
48951;SDS011;34758;42.148;24.744;2023-06-04T13:56:30;4.07;;;3.42;;
48951;SDS011;34758;42.148;24.744;2023-06-04T13:58:57;4.10;;;3.63;;
48951;SDS011;34758;42.148;24.744;2023-06-04T14:01:24;5.22;;;3.38;;
48951;SDS011;34758;42.148;24.744;2023-06-04T14:03:51;6.63;;;3.13;;
48951;SDS011;34758;42.148;24.744;2023-06-04T14:06:18;3.75;;;3.45;;
48951;SDS011;34758;42.148;24.744;2023-06-04T14:08:45;4.90;;;3.90;;
48951;SDS011;34758;42.148;24.744;2023-06-04T14:11:15;3.70;;;3.40;;
48951;SDS011;34758;42.148;24.744;2023-06-04T14:13:42;4.25;;;3.53;;
48951;SDS011;34758;42.148;24.744;2023-06-04T14:16:13;8.50;;;4.35;;
48951;SDS011;34758;42.148;24.744;2023-06-04T14:18:41;4.90;;;4.18;;
48951;SDS011;34758;42.148;24.744;2023-06-04T14:21:11;6.55;;;3.92;;
48951;SDS011;34758;42.148;24.744;2023-06-04T14:23:41;4.13;;;3.47;;
48951;SDS011;34758;42.148;24.744;2023-06-04T14:26:08;5.88;;;3.70;;
48951;SDS011;34758;42.148;24.744;2023-06-04T14:28:39;8.18;;;4.90;;
48951;SDS011;34758;42.148;24.744;2023-06-04T14:31:06;6.15;;;4.45;;
48951;SDS011;34758;42.148;24.744;2023-06-04T14:33:33;6.50;;;4.57;;
48951;SDS011;34758;42.148;24.744;2023-06-04T14:36:04;4.40;;;4.05;;
48951;SDS011;34758;42.148;24.744;2023-06-04T14:38:31;4.00;;;3.60;;
48951;SDS011;34758;42.148;24.744;2023-06-04T14:40:58;4.05;;;3.75;;
48951;SDS011;34758;42.148;24.744;2023-06-04T14:43:25;4.30;;;3.95;;
48951;SDS011;34758;42.148;24.744;2023-06-04T14:45:55;6.22;;;4.05;;
48951;SDS011;34758;42.148;24.744;2023-06-04T14:48:22;4.75;;;4.35;;